createdAt,value
2022-11-29T00:04:32.545Z,5.18
2022-11-29T00:09:37.299Z,5.17
2022-11-29T00:14:39.491Z,5.20
2022-11-29T00:19:45.978Z,5.19
2022-11-29T00:24:47.724Z,5.19
2022-11-29T00:29:49.624Z,5.19
2022-11-29T00:34:51.325Z,5.21
2022-11-29T00:39:55.318Z,5.21
2022-11-29T00:45:01.261Z,5.16
2022-11-29T00:50:03.544Z,5.18
2022-11-29T00:55:08.868Z,5.20
2022-11-29T01:00:11.090Z,5.20
2022-11-29T01:05:17.829Z,5.18
2022-11-29T01:10:19.586Z,5.16
2022-11-29T01:15:22.428Z,5.18
2022-11-29T01:20:24.216Z,5.18
2022-11-29T01:25:29.544Z,5.18
2022-11-29T01:30:31.253Z,5.17
2022-11-29T01:35:32.993Z,5.19
2022-11-29T01:40:37.004Z,5.18
2022-11-29T01:45:41.288Z,5.18
2022-11-29T01:50:45.380Z,5.16
2022-11-29T01:55:53.860Z,5.15
2022-11-29T02:00:57.441Z,5.16
2022-11-29T02:06:10.546Z,5.14
2022-11-29T02:11:15.034Z,5.15
2022-11-29T02:16:23.285Z,5.15
2022-11-29T02:21:27.901Z,5.12
2022-11-29T02:27:01.912Z,5.12
2022-11-29T02:32:34.840Z,5.11
2022-11-29T02:37:48.299Z,5.09
2022-11-29T02:43:14.334Z,5.11
2022-11-29T02:48:31.013Z,5.10
2022-11-29T02:53:58.307Z,5.12
2022-11-29T02:59:05.658Z,5.11
2022-11-29T03:04:21.197Z,5.12
2022-11-29T03:09:36.467Z,5.15
2022-11-29T03:15:08.433Z,5.15
2022-11-29T03:20:33.851Z,5.16
2022-11-29T03:26:01.901Z,5.16
2022-11-29T03:31:29.245Z,5.14
2022-11-29T03:36:55.517Z,5.17
2022-11-29T03:42:05.297Z,5.16
2022-11-29T03:47:15.893Z,5.17
2022-11-29T03:52:18.685Z,5.16
2022-11-29T03:57:45.312Z,5.15
2022-11-29T04:03:13.296Z,5.17
2022-11-29T04:08:34.748Z,5.20
2022-11-29T04:14:03.664Z,5.19
2022-11-29T04:19:37.446Z,5.19
2022-11-29T04:25:16.332Z,5.21
2022-11-29T04:30:25.449Z,5.18
2022-11-29T04:35:48.480Z,5.18
2022-11-29T04:40:58.526Z,5.16
2022-11-29T04:46:27.220Z,5.17
2022-11-29T04:51:49.715Z,5.16
2022-11-29T04:57:09.319Z,5.16
2022-11-29T05:02:33.174Z,5.18
2022-11-29T05:07:51.976Z,5.16
2022-11-29T05:13:03.223Z,5.18
2022-11-29T05:18:19.018Z,5.19
2022-11-29T05:23:31.874Z,5.19
2022-11-29T05:29:06.641Z,5.22
2022-11-29T05:34:33.278Z,5.22
2022-11-29T05:39:54.637Z,5.21
2022-11-29T05:45:12.941Z,5.19
2022-11-29T05:50:28.712Z,5.22
2022-11-29T05:55:47.279Z,5.24
2022-11-29T06:01:05.771Z,5.25
2022-11-29T06:06:30.623Z,5.26
2022-11-29T06:11:40.182Z,5.27
2022-11-29T06:16:51.233Z,5.26
2022-11-29T06:22:05.780Z,5.26
2022-11-29T06:27:42.964Z,5.32
2022-11-29T06:33:12.511Z,5.28
2022-11-29T06:38:32.783Z,5.25
2022-11-29T06:43:34.741Z,5.25
2022-11-29T06:49:02.061Z,5.25
2022-11-29T06:54:20.964Z,5.26
2022-11-29T07:00:03.811Z,5.26
2022-11-29T07:05:22.765Z,5.23
2022-11-29T07:10:29.270Z,5.22
2022-11-29T07:15:31.447Z,5.19
2022-11-29T07:20:54.892Z,5.18
2022-11-29T07:26:03.626Z,5.17
2022-11-29T07:31:29.790Z,5.21
2022-11-29T07:37:06.084Z,5.28
2022-11-29T07:42:21.340Z,5.28
2022-11-29T07:47:24.665Z,5.27
2022-11-29T07:52:28.630Z,5.26
2022-11-29T07:57:36.923Z,5.26
2022-11-29T08:02:43.840Z,5.23
2022-11-29T08:07:47.901Z,5.23
2022-11-29T08:12:52.365Z,5.24
2022-11-29T08:17:58.871Z,5.24
2022-11-29T08:23:03.381Z,5.24
2022-11-29T08:28:05.950Z,5.25
2022-11-29T08:33:07.810Z,5.25
2022-11-29T08:38:11.744Z,5.23
2022-11-29T08:43:13.469Z,5.22
2022-11-29T08:48:17.372Z,5.21
2022-11-29T08:53:38.368Z,5.25
2022-11-29T08:58:43.166Z,5.27
2022-11-29T09:04:02.913Z,5.29
2022-11-29T09:09:07.966Z,5.29
2022-11-29T09:14:15.816Z,5.29
2022-11-29T09:19:17.675Z,5.29
2022-11-29T09:24:20.729Z,5.33
2022-11-29T09:29:22.569Z,5.36
2022-11-29T09:34:26.550Z,5.39
2022-11-29T09:39:34.631Z,5.39
2022-11-29T09:45:15.036Z,5.43
2022-11-29T09:50:25.775Z,5.41
2022-11-29T09:55:35.872Z,5.44
2022-11-29T10:00:45.821Z,5.47
2022-11-29T10:05:53.361Z,5.50
2022-11-29T10:11:09.960Z,5.51
2022-11-29T10:16:54.119Z,5.51
2022-11-29T10:22:02.862Z,5.54
2022-11-29T10:27:18.583Z,5.52
2022-11-29T10:32:21.421Z,5.53
2022-11-29T10:37:25.006Z,5.53
2022-11-29T10:42:53.289Z,5.53
2022-11-29T10:48:03.121Z,5.52
2022-11-29T10:53:15.624Z,5.55
2022-11-29T10:58:28.218Z,5.57
2022-11-29T11:03:52.830Z,5.61
2022-11-29T11:09:15.330Z,5.62
2022-11-29T11:14:31.029Z,5.67
2022-11-29T11:19:34.434Z,5.72
2022-11-29T11:24:41.001Z,5.75
2022-11-29T11:29:46.359Z,5.75
2022-11-29T11:35:21.610Z,5.78
2022-11-29T11:40:29.627Z,5.76
2022-11-29T11:45:35.054Z,5.74
2022-11-29T11:50:42.692Z,5.77
2022-11-29T11:56:09.436Z,5.82
2022-11-29T12:01:25.256Z,5.83
2022-11-29T12:06:42.220Z,5.87
2022-11-29T12:12:03.741Z,5.84
2022-11-29T12:17:19.665Z,5.84
2022-11-29T12:22:24.613Z,5.82
2022-11-29T12:27:28.562Z,5.78
2022-11-29T12:32:36.888Z,5.77
2022-11-29T12:37:44.290Z,5.78
2022-11-29T12:43:01.205Z,5.80
2022-11-29T12:48:35.227Z,5.80
2022-11-29T12:54:01.151Z,5.83
2022-11-29T12:59:15.491Z,5.83
2022-11-29T13:04:26.295Z,5.83
2022-11-29T13:10:02.736Z,5.83
2022-11-29T13:15:14.421Z,5.83
2022-11-29T13:20:36.897Z,5.81
2022-11-29T13:25:42.100Z,5.83
2022-11-29T13:30:44.077Z,5.84
2022-11-29T13:35:54.526Z,5.85
2022-11-29T13:41:13.169Z,5.84
2022-11-29T13:46:38.654Z,5.85
2022-11-29T13:51:46.289Z,5.84
2022-11-29T13:56:50.219Z,5.83
2022-11-29T14:01:55.399Z,5.82
2022-11-29T14:07:09.891Z,5.80
2022-11-29T14:12:37.060Z,5.80
2022-11-29T14:17:53.345Z,5.77
2022-11-29T14:23:04.550Z,5.77
2022-11-29T14:28:12.415Z,5.73
2022-11-29T14:33:45.047Z,5.70
2022-11-29T14:39:04.969Z,5.70
2022-11-29T14:44:28.476Z,5.67
2022-11-29T14:49:40.827Z,5.64
2022-11-29T14:55:23.433Z,5.61
2022-11-29T15:00:46.767Z,5.58
2022-11-29T15:05:58.001Z,5.56
2022-11-29T15:11:20.017Z,5.52
2022-11-29T15:17:03.828Z,5.49
2022-11-29T15:22:21.358Z,5.47
2022-11-29T15:27:25.585Z,5.46
2022-11-29T15:32:30.941Z,5.45
2022-11-29T15:37:36.504Z,5.44
2022-11-29T15:42:43.553Z,5.42
2022-11-29T15:47:45.290Z,5.43
2022-11-29T15:52:50.185Z,5.39
2022-11-29T15:57:56.659Z,5.37
2022-11-29T16:03:06.572Z,5.35
2022-11-29T16:08:16.393Z,5.29
2022-11-29T16:13:38.897Z,5.29
2022-11-29T16:18:45.408Z,5.39
2022-11-29T16:23:54.902Z,5.35
2022-11-29T16:28:59.109Z,5.31
2022-11-29T16:34:31.220Z,5.30
2022-11-29T16:39:35.474Z,5.25
2022-11-29T16:44:46.836Z,5.22
2022-11-29T16:50:15.825Z,5.22
2022-11-29T16:55:25.330Z,5.19
2022-11-29T17:00:30.093Z,5.16
2022-11-29T17:05:31.803Z,5.15
2022-11-29T17:10:40.604Z,5.15
2022-11-29T17:15:45.904Z,5.17
2022-11-29T17:20:47.640Z,5.17
2022-11-29T17:26:01.449Z,5.16
2022-11-29T17:31:10.849Z,5.15
2022-11-29T17:36:15.480Z,5.15
2022-11-29T17:41:22.774Z,5.13
2022-11-29T17:46:36.359Z,5.12
2022-11-29T17:51:51.673Z,5.11
2022-11-29T17:56:58.667Z,5.11
2022-11-29T18:02:04.744Z,5.10
2022-11-29T18:07:13.041Z,5.11
2022-11-29T18:12:14.944Z,5.09
2022-11-29T18:17:19.157Z,5.08
2022-11-29T18:22:25.482Z,5.07
2022-11-29T18:27:30.613Z,5.05
2022-11-29T18:32:34.683Z,5.04
2022-11-29T18:38:13.325Z,5.05
2022-11-29T18:43:03.264Z,5.05
2022-11-29T18:48:07.588Z,5.04
2022-11-29T18:53:13.102Z,5.03
2022-11-29T18:58:14.771Z,5.04
2022-11-29T19:03:18.897Z,5.02
2022-11-29T19:08:20.617Z,5.02
2022-11-29T19:13:22.567Z,5.03
2022-11-29T19:18:26.768Z,5.02
2022-11-29T19:23:33.819Z,5.03
2022-11-29T19:28:42.789Z,5.02
2022-11-29T19:33:45.204Z,5.00
2022-11-29T19:38:54.075Z,4.98
2022-11-29T19:43:57.314Z,4.96
2022-11-29T19:49:04.249Z,4.98
2022-11-29T19:54:10.213Z,4.97
2022-11-29T19:59:11.902Z,4.97
2022-11-29T20:04:17.562Z,4.98
2022-11-29T20:09:22.427Z,4.97
2022-11-29T20:14:24.663Z,4.96
2022-11-29T20:19:29.887Z,4.97
2022-11-29T20:24:40.100Z,4.98
2022-11-29T20:29:49.295Z,4.98
2022-11-29T20:34:54.338Z,4.98
2022-11-29T20:40:13.645Z,4.95
2022-11-29T20:45:16.645Z,4.95
2022-11-29T20:50:27.110Z,4.93
2022-11-29T20:55:31.489Z,4.94
2022-11-29T21:00:34.379Z,4.96
2022-11-29T21:05:38.468Z,4.91
2022-11-29T21:10:42.425Z,4.90
2022-11-29T21:15:44.438Z,4.89
2022-11-29T21:20:51.545Z,4.87
2022-11-29T21:25:58.087Z,4.87
2022-11-29T21:31:02.954Z,4.86
2022-11-29T21:36:07.304Z,4.86
2022-11-29T21:41:09.035Z,4.86
2022-11-29T21:46:11.084Z,4.86
2022-11-29T21:51:13.055Z,4.88
2022-11-29T21:56:14.861Z,4.87
2022-11-29T22:01:23.208Z,4.87
2022-11-29T22:06:29.331Z,4.86
2022-11-29T22:11:35.349Z,4.85
2022-11-29T22:16:38.778Z,4.85
2022-11-29T22:21:45.006Z,4.84
2022-11-29T22:26:49.824Z,4.85
2022-11-29T22:31:59.213Z,4.83
2022-11-29T22:37:03.141Z,4.84
2022-11-29T22:42:06.066Z,4.82
2022-11-29T22:47:07.855Z,4.82
2022-11-29T22:52:11.964Z,4.82
2022-11-29T22:57:18.506Z,4.81
2022-11-29T23:02:22.466Z,4.81
2022-11-29T23:07:24.351Z,4.82
2022-11-29T23:12:26.194Z,4.81
2022-11-29T23:17:29.743Z,4.80
2022-11-29T23:22:31.685Z,4.80
2022-11-29T23:27:35.816Z,4.80
2022-11-29T23:32:42.070Z,4.80
2022-11-29T23:37:44.208Z,4.81
2022-11-29T23:42:53.195Z,4.79
2022-11-29T23:47:57.123Z,4.80
2022-11-29T23:53:01.205Z,4.80
2022-11-29T23:58:06.748Z,4.78
